createdAt,value
2023-01-18T00:00:14.647Z,8.9
2023-01-18T00:01:14.584Z,9
2023-01-18T00:02:14.576Z,9
2023-01-18T00:03:14.591Z,8.9
2023-01-18T00:04:14.585Z,9
2023-01-18T00:05:14.674Z,9
2023-01-18T00:06:14.613Z,9
2023-01-18T00:07:14.580Z,8.9
2023-01-18T00:08:14.573Z,9
2023-01-18T00:09:14.596Z,9
2023-01-18T00:10:14.611Z,8.9
2023-01-18T00:11:14.583Z,8.9
2023-01-18T00:12:14.571Z,9
2023-01-18T00:13:14.570Z,8.9
2023-01-18T00:14:14.594Z,9
2023-01-18T00:15:14.591Z,8.9
2023-01-18T00:16:14.687Z,8.9
2023-01-18T00:17:14.547Z,8.9
2023-01-18T00:18:14.589Z,8.9
2023-01-18T00:19:14.568Z,8.9
2023-01-18T00:20:14.568Z,8.9
2023-01-18T00:21:14.600Z,8.9
2023-01-18T00:22:14.586Z,8.9
2023-01-18T00:23:14.598Z,8.9
2023-01-18T00:24:14.578Z,8.9
2023-01-18T00:25:14.601Z,8.9
2023-01-18T00:26:14.626Z,8.9
2023-01-18T00:27:14.580Z,8.9
2023-01-18T00:28:14.596Z,8.9
2023-01-18T00:29:14.588Z,8.9
2023-01-18T00:30:14.569Z,8.9
2023-01-18T00:31:14.691Z,8.9
2023-01-18T00:32:14.619Z,8.9
2023-01-18T00:33:14.557Z,8.9
2023-01-18T00:34:14.582Z,8.9
2023-01-18T00:35:14.610Z,9
2023-01-18T00:36:14.588Z,8.9
2023-01-18T00:37:14.580Z,8.9
2023-01-18T00:38:14.560Z,8.9
2023-01-18T00:39:14.595Z,8.9
2023-01-18T00:40:14.561Z,8.9
2023-01-18T00:41:14.605Z,8.9
2023-01-18T00:42:14.569Z,8.9
2023-01-18T00:43:14.576Z,8.9
2023-01-18T00:44:14.566Z,8.9
2023-01-18T00:45:14.544Z,8.9
2023-01-18T00:46:14.625Z,8.9
2023-01-18T00:47:14.582Z,8.9
2023-01-18T00:48:14.570Z,8.9
2023-01-18T00:49:14.552Z,8.9
2023-01-18T00:50:14.565Z,8.9
2023-01-18T00:51:14.616Z,8.9
2023-01-18T00:52:14.626Z,8.9
2023-01-18T00:53:14.548Z,8.9
2023-01-18T00:54:14.551Z,8.9
2023-01-18T00:55:14.606Z,8.9
2023-01-18T00:56:14.571Z,8.9
2023-01-18T00:57:14.555Z,8.9
2023-01-18T00:58:14.569Z,8.9
2023-01-18T00:59:14.582Z,8.9
2023-01-18T01:00:14.570Z,8.9
2023-01-18T01:01:14.686Z,8.9
2023-01-18T01:02:14.728Z,8.9
2023-01-18T01:03:14.573Z,8.9
2023-01-18T01:04:14.583Z,8.9
2023-01-18T01:05:14.574Z,8.9
2023-01-18T01:06:14.578Z,8.9
2023-01-18T01:07:14.572Z,8.9
2023-01-18T01:08:14.595Z,8.9
2023-01-18T01:09:14.546Z,8.9
2023-01-18T01:10:14.574Z,8.9
2023-01-18T01:11:14.563Z,8.9
2023-01-18T01:12:14.565Z,8.9
2023-01-18T01:13:14.590Z,8.9
2023-01-18T01:14:14.571Z,8.9
2023-01-18T01:15:14.582Z,8.9
2023-01-18T01:16:14.598Z,8.9
2023-01-18T01:17:14.583Z,8.9
2023-01-18T01:18:14.580Z,8.9
2023-01-18T01:19:14.570Z,8.9
2023-01-18T01:20:14.580Z,8.9
2023-01-18T01:21:14.596Z,8.9
2023-01-18T01:22:14.579Z,8.9
2023-01-18T01:23:14.577Z,8.9
2023-01-18T01:24:14.597Z,8.9
2023-01-18T01:25:14.598Z,8.9
2023-01-18T01:26:14.552Z,8.9
2023-01-18T01:27:14.580Z,8.9
2023-01-18T01:28:14.549Z,8.9
2023-01-18T01:29:14.577Z,8.9
2023-01-18T01:30:14.546Z,8.9
2023-01-18T01:31:14.578Z,8.9
2023-01-18T01:32:14.585Z,8.9
2023-01-18T01:33:14.567Z,8.9
2023-01-18T01:34:14.585Z,8.9
2023-01-18T01:35:14.584Z,8.9
2023-01-18T01:36:14.575Z,8.9
2023-01-18T01:37:14.561Z,8.9
2023-01-18T01:38:14.604Z,8.9
2023-01-18T01:39:14.607Z,8.9
2023-01-18T01:40:14.569Z,8.9
2023-01-18T01:41:14.579Z,8.9
2023-01-18T01:42:14.549Z,8.9
2023-01-18T01:43:14.594Z,8.9
2023-01-18T01:44:14.579Z,8.9
2023-01-18T01:45:14.561Z,8.9
2023-01-18T01:46:14.624Z,8.9
2023-01-18T01:47:14.566Z,8.9
2023-01-18T01:48:14.567Z,8.9
2023-01-18T01:49:14.565Z,8.9
2023-01-18T01:50:14.562Z,8.9
2023-01-18T01:51:14.564Z,8.9
2023-01-18T01:52:14.568Z,8.9
2023-01-18T01:53:14.562Z,8.9
2023-01-18T01:54:14.557Z,8.9
2023-01-18T01:55:14.611Z,8.9
2023-01-18T01:56:14.534Z,8.9
2023-01-18T01:57:14.543Z,8.9
2023-01-18T01:58:14.584Z,8.9
2023-01-18T01:59:14.556Z,8.9
2023-01-18T02:00:14.561Z,8.9
2023-01-18T02:01:14.649Z,8.9
2023-01-18T02:02:14.702Z,8.9
2023-01-18T02:03:14.576Z,8.9
2023-01-18T02:04:14.544Z,8.9
2023-01-18T02:05:14.564Z,8.9
2023-01-18T02:06:14.573Z,8.9
2023-01-18T02:07:14.556Z,8.9
2023-01-18T02:08:14.563Z,8.9
2023-01-18T02:09:14.585Z,8.9
2023-01-18T02:10:14.587Z,8.9
2023-01-18T02:11:14.584Z,8.9
2023-01-18T02:12:14.527Z,8.9
2023-01-18T02:13:14.537Z,8.9
2023-01-18T02:14:14.572Z,8.9
2023-01-18T02:15:14.579Z,8.9
2023-01-18T02:16:14.576Z,8.9
2023-01-18T02:17:14.577Z,8.9
2023-01-18T02:18:14.576Z,8.9
2023-01-18T02:19:14.538Z,8.9
2023-01-18T02:20:14.557Z,8.9
2023-01-18T02:21:14.562Z,8.9
2023-01-18T02:22:14.554Z,8.9
2023-01-18T02:23:14.553Z,8.9
2023-01-18T02:24:14.535Z,8.9
2023-01-18T02:25:14.547Z,8.9
2023-01-18T02:26:14.609Z,8.9
2023-01-18T02:27:14.541Z,8.9
2023-01-18T02:28:14.546Z,8.9
2023-01-18T02:29:14.590Z,8.9
2023-01-18T02:30:14.554Z,8.9
2023-01-18T02:31:14.607Z,8.9
2023-01-18T02:32:14.564Z,8.9
2023-01-18T02:33:14.513Z,8.9
2023-01-18T02:34:14.545Z,8.9
2023-01-18T02:35:14.557Z,8.9
2023-01-18T02:36:14.583Z,8.9
2023-01-18T02:37:14.551Z,8.9
2023-01-18T02:38:14.543Z,8.9
2023-01-18T02:39:14.573Z,8.9
2023-01-18T02:40:14.526Z,8.9
2023-01-18T02:41:14.595Z,8.9
2023-01-18T02:42:14.548Z,8.9
2023-01-18T02:43:14.550Z,8.9
2023-01-18T02:44:14.555Z,8.9
2023-01-18T02:45:14.538Z,8.9
2023-01-18T02:46:14.708Z,8.9
2023-01-18T02:47:14.564Z,8.9
2023-01-18T02:48:14.550Z,8.9
2023-01-18T02:49:14.547Z,8.9
2023-01-18T02:50:14.550Z,8.9
2023-01-18T02:51:14.561Z,8.9
2023-01-18T02:52:14.562Z,8.9
2023-01-18T02:53:14.571Z,8.9
2023-01-18T02:54:14.565Z,8.8
2023-01-18T02:55:14.529Z,8.9
2023-01-18T02:56:14.545Z,8.9
2023-01-18T02:57:14.610Z,8.9
2023-01-18T02:58:14.534Z,8.9
2023-01-18T02:59:14.557Z,8.9
2023-01-18T03:00:14.568Z,8.9
2023-01-18T03:01:14.667Z,8.9
2023-01-18T03:02:14.600Z,8.9
2023-01-18T03:03:14.554Z,8.9
2023-01-18T03:04:14.562Z,8.9
2023-01-18T03:05:14.548Z,8.9
2023-01-18T03:06:14.561Z,8.9
2023-01-18T03:07:14.572Z,8.9
2023-01-18T03:08:14.567Z,8.9
2023-01-18T03:09:14.534Z,8.9
2023-01-18T03:10:36.473Z,8.9
2023-01-18T03:11:14.544Z,8.9
2023-01-18T03:12:14.547Z,8.9
2023-01-18T03:13:14.554Z,8.9
2023-01-18T03:14:14.535Z,8.9
2023-01-18T03:15:14.579Z,8.9
2023-01-18T03:16:14.716Z,8.9
2023-01-18T03:17:14.547Z,8.9
2023-01-18T03:18:14.534Z,8.9
2023-01-18T03:19:14.550Z,8.9
2023-01-18T03:20:14.608Z,8.9
2023-01-18T03:21:14.567Z,8.9
2023-01-18T03:22:14.573Z,8.9
2023-01-18T03:23:14.580Z,8.9
2023-01-18T03:24:14.540Z,8.9
2023-01-18T03:25:14.583Z,8.9
2023-01-18T03:26:14.573Z,8.9
2023-01-18T03:27:14.529Z,8.9
2023-01-18T03:28:14.553Z,8.9
2023-01-18T03:29:14.565Z,8.9
2023-01-18T03:30:14.552Z,8.9
2023-01-18T03:31:14.581Z,8.9
2023-01-18T03:32:14.556Z,8.9
2023-01-18T03:33:14.562Z,8.9
2023-01-18T03:34:14.564Z,8.9
2023-01-18T03:35:14.559Z,8.9
2023-01-18T03:36:14.567Z,8.9
2023-01-18T03:37:14.521Z,8.9
2023-01-18T03:38:14.539Z,8.9
2023-01-18T03:39:14.780Z,8.9
2023-01-18T03:40:14.528Z,8.9
2023-01-18T03:41:14.523Z,8.9
2023-01-18T03:42:14.547Z,8.9
2023-01-18T03:43:14.565Z,8.9
2023-01-18T03:44:14.568Z,8.9
2023-01-18T03:45:14.541Z,8.9
2023-01-18T03:46:14.596Z,8.8
2023-01-18T03:47:14.532Z,8.8
2023-01-18T03:48:14.519Z,8.8
2023-01-18T03:49:14.555Z,8.8
2023-01-18T03:50:14.564Z,8.9
2023-01-18T03:51:14.518Z,8.8
2023-01-18T03:52:14.528Z,8.8
2023-01-18T03:53:14.542Z,8.8
2023-01-18T03:54:14.534Z,8.9
2023-01-18T03:55:14.547Z,8.9
2023-01-18T03:56:14.546Z,8.9
2023-01-18T03:57:14.529Z,8.9
2023-01-18T03:58:14.507Z,8.9
2023-01-18T03:59:14.527Z,8.9
2023-01-18T04:00:14.589Z,8.9
2023-01-18T04:01:14.695Z,8.9
2023-01-18T04:02:14.546Z,8.9
2023-01-18T04:03:14.580Z,8.8
2023-01-18T04:04:14.530Z,8.9
2023-01-18T04:05:14.524Z,8.9
2023-01-18T04:06:14.511Z,8.8
2023-01-18T04:07:14.542Z,8.8
2023-01-18T04:08:14.567Z,8.8
2023-01-18T04:09:14.540Z,8.8
2023-01-18T04:10:14.556Z,8.8
2023-01-18T04:11:14.545Z,8.8
2023-01-18T04:12:14.553Z,8.8
2023-01-18T04:13:14.498Z,8.8
2023-01-18T04:14:14.511Z,8.9
2023-01-18T04:15:14.544Z,8.9
2023-01-18T04:16:14.593Z,8.9
2023-01-18T04:17:14.504Z,8.9
2023-01-18T04:18:14.525Z,8.9
2023-01-18T04:19:14.540Z,8.9
2023-01-18T04:20:14.542Z,8.9
2023-01-18T04:21:14.535Z,8.9
2023-01-18T04:22:14.543Z,8.9
2023-01-18T04:23:14.514Z,8.9
2023-01-18T04:24:14.553Z,8.9
2023-01-18T04:25:14.551Z,8.9
2023-01-18T04:26:14.550Z,8.9
2023-01-18T04:27:14.540Z,8.8
2023-01-18T04:28:14.528Z,8.9
2023-01-18T04:29:14.559Z,8.8
2023-01-18T04:30:14.542Z,8.9
2023-01-18T04:31:14.615Z,8.9
2023-01-18T04:32:14.548Z,8.9
2023-01-18T04:33:14.524Z,8.9
2023-01-18T04:34:14.547Z,8.9
2023-01-18T04:35:14.548Z,8.9
2023-01-18T04:36:14.581Z,8.9
2023-01-18T04:37:14.563Z,8.9
2023-01-18T04:38:14.536Z,8.9
2023-01-18T04:39:14.511Z,8.9
2023-01-18T04:40:14.548Z,8.9
2023-01-18T04:41:14.559Z,8.9
2023-01-18T04:42:14.577Z,8.9
2023-01-18T04:43:14.538Z,8.9
2023-01-18T04:44:14.485Z,8.9
2023-01-18T04:45:14.551Z,8.9
2023-01-18T04:46:14.649Z,8.9
2023-01-18T04:47:14.493Z,8.9
2023-01-18T04:48:14.517Z,8.8
2023-01-18T04:49:14.574Z,8.9
2023-01-18T04:50:14.538Z,8.8
2023-01-18T04:51:14.526Z,8.9
2023-01-18T04:52:14.597Z,8.9
2023-01-18T04:53:14.542Z,8.9
2023-01-18T04:54:14.526Z,8.9
2023-01-18T04:55:14.502Z,8.9
2023-01-18T04:56:14.518Z,8.9
2023-01-18T04:57:14.511Z,8.9
2023-01-18T04:58:14.524Z,8.9
2023-01-18T04:59:14.517Z,8.8
2023-01-18T05:00:14.553Z,8.9
2023-01-18T05:01:14.785Z,8.8
2023-01-18T05:02:14.569Z,8.9
2023-01-18T05:03:14.505Z,8.8
2023-01-18T05:04:14.533Z,8.9
2023-01-18T05:05:14.509Z,8.8
2023-01-18T05:06:14.628Z,8.8
2023-01-18T05:07:14.493Z,8.8
2023-01-18T05:08:14.538Z,8.9
2023-01-18T05:09:14.506Z,8.9
2023-01-18T05:10:14.513Z,8.9
2023-01-18T05:11:14.514Z,8.8
2023-01-18T05:12:14.503Z,8.9
2023-01-18T05:13:14.540Z,8.8
2023-01-18T05:14:14.519Z,8.8
2023-01-18T05:15:14.540Z,8.8
2023-01-18T05:16:14.626Z,8.8
2023-01-18T05:17:14.538Z,8.8
2023-01-18T05:18:14.512Z,8.8
2023-01-18T05:19:14.513Z,8.8
2023-01-18T05:20:14.518Z,8.9
2023-01-18T05:21:14.542Z,8.8
2023-01-18T05:22:14.511Z,8.8
2023-01-18T05:23:14.520Z,8.9
2023-01-18T05:24:14.521Z,8.8
2023-01-18T05:25:14.517Z,8.9
2023-01-18T05:26:14.575Z,8.9
2023-01-18T05:27:14.516Z,8.9
2023-01-18T05:28:14.516Z,8.9
2023-01-18T05:29:14.532Z,8.8
2023-01-18T05:30:14.518Z,8.8
2023-01-18T05:31:14.526Z,8.8
2023-01-18T05:32:14.508Z,8.8
2023-01-18T05:33:14.527Z,8.8
2023-01-18T05:34:14.553Z,8.8
2023-01-18T05:35:14.524Z,8.8
2023-01-18T05:36:14.531Z,8.8
2023-01-18T05:37:14.497Z,8.8
2023-01-18T05:38:14.511Z,8.8
2023-01-18T05:39:14.551Z,8.8
2023-01-18T05:40:14.511Z,8.8
2023-01-18T05:41:14.493Z,8.8
2023-01-18T05:42:14.521Z,8.8
2023-01-18T05:43:14.516Z,8.8
2023-01-18T05:44:14.535Z,8.8
2023-01-18T05:45:14.512Z,8.8
2023-01-18T05:46:14.505Z,8.8
2023-01-18T05:47:14.516Z,8.8
2023-01-18T05:48:14.515Z,8.8
2023-01-18T05:49:14.520Z,8.8
2023-01-18T05:50:14.518Z,8.8
2023-01-18T05:51:14.509Z,8.8
2023-01-18T05:52:14.496Z,8.8
2023-01-18T05:53:14.508Z,8.8
2023-01-18T05:54:14.529Z,8.8
2023-01-18T05:55:14.502Z,8.8
2023-01-18T05:56:14.500Z,8.8
2023-01-18T05:57:14.488Z,8.8
2023-01-18T05:58:14.529Z,8.8
2023-01-18T05:59:14.541Z,8.8
2023-01-18T06:00:14.528Z,8.8
2023-01-18T06:01:14.567Z,8.8
2023-01-18T06:02:14.612Z,8.8
2023-01-18T06:03:14.515Z,8.8
2023-01-18T06:04:14.549Z,8.8
2023-01-18T06:05:14.530Z,8.8
2023-01-18T06:06:14.503Z,8.8
2023-01-18T06:07:14.473Z,8.8
2023-01-18T06:08:14.526Z,8.8
2023-01-18T06:09:14.506Z,8.8
2023-01-18T06:10:14.527Z,8.8
2023-01-18T06:11:14.494Z,8.8
2023-01-18T06:12:14.508Z,8.8
2023-01-18T06:13:14.495Z,8.8
2023-01-18T06:14:14.517Z,8.8
2023-01-18T06:15:14.532Z,8.8
2023-01-18T06:16:14.626Z,8.8
2023-01-18T06:17:14.616Z,8.8
2023-01-18T06:18:14.493Z,8.8
2023-01-18T06:19:14.508Z,8.8
2023-01-18T06:20:14.526Z,8.8
2023-01-18T06:21:14.496Z,8.8
2023-01-18T06:22:14.504Z,8.8
2023-01-18T06:23:14.509Z,8.8
2023-01-18T06:24:14.491Z,8.8
2023-01-18T06:25:14.505Z,8.8
2023-01-18T06:26:14.478Z,8.8
2023-01-18T06:27:14.521Z,8.8
2023-01-18T06:28:14.508Z,8.8
2023-01-18T06:29:14.496Z,8.8
2023-01-18T06:30:14.484Z,8.8
2023-01-18T06:31:14.523Z,8.8
2023-01-18T06:32:14.518Z,8.8
2023-01-18T06:33:14.489Z,8.8
2023-01-18T06:34:14.493Z,8.8
2023-01-18T06:35:14.525Z,8.8
2023-01-18T06:36:14.506Z,8.8
2023-01-18T06:37:14.483Z,8.8
2023-01-18T06:38:14.523Z,8.8
2023-01-18T06:39:14.506Z,8.8
2023-01-18T06:40:14.513Z,8.8
2023-01-18T06:41:14.513Z,8.8
2023-01-18T06:42:14.489Z,8.8
2023-01-18T06:43:14.597Z,8.8
2023-01-18T06:44:14.500Z,8.8
2023-01-18T06:45:14.504Z,8.8
2023-01-18T06:46:14.495Z,8.8
2023-01-18T06:47:14.518Z,8.9
2023-01-18T06:48:14.503Z,8.8
2023-01-18T06:49:14.501Z,8.8
2023-01-18T06:50:14.493Z,8.8
2023-01-18T06:51:14.488Z,8.8
2023-01-18T06:52:14.487Z,8.8
2023-01-18T06:53:14.513Z,8.8
2023-01-18T06:54:14.519Z,8.8
2023-01-18T06:55:14.540Z,8.8
2023-01-18T06:56:14.481Z,8.9
2023-01-18T06:57:14.519Z,8.8
2023-01-18T06:58:14.484Z,8.8
2023-01-18T06:59:14.496Z,8.9
2023-01-18T07:00:14.482Z,8.8
2023-01-18T07:01:14.558Z,8.8
2023-01-18T07:02:14.491Z,8.8
2023-01-18T07:03:14.504Z,8.8
2023-01-18T07:04:14.574Z,8.8
2023-01-18T07:05:14.505Z,8.8
2023-01-18T07:06:14.494Z,8.8
2023-01-18T07:07:14.510Z,8.8
2023-01-18T07:08:14.499Z,8.8
2023-01-18T07:09:14.501Z,8.8
2023-01-18T07:10:16.511Z,8.8
2023-01-18T07:11:14.468Z,8.8
2023-01-18T07:12:14.503Z,8.9
2023-01-18T07:13:14.524Z,8.8
2023-01-18T07:14:14.466Z,8.8
2023-01-18T07:15:21.591Z,8.8
2023-01-18T07:16:14.447Z,8.9
2023-01-18T07:17:14.471Z,8.8
2023-01-18T07:18:14.527Z,8.8
2023-01-18T07:19:14.460Z,8.8
2023-01-18T07:20:14.489Z,8.8
2023-01-18T07:21:15.264Z,8.8
2023-01-18T07:22:14.471Z,8.8
2023-01-18T07:23:14.506Z,8.8
2023-01-18T07:24:14.504Z,8.8
2023-01-18T07:25:14.477Z,8.9
2023-01-18T07:26:14.490Z,8.8
2023-01-18T07:27:14.503Z,8.8
2023-01-18T07:28:14.497Z,8.8
2023-01-18T07:29:14.466Z,8.9
2023-01-18T07:30:14.456Z,8.9
2023-01-18T07:31:14.486Z,8.9
2023-01-18T07:32:14.459Z,8.9
2023-01-18T07:33:14.510Z,8.8
2023-01-18T07:34:14.524Z,8.8
2023-01-18T07:35:14.501Z,8.8
2023-01-18T07:36:14.528Z,8.8
2023-01-18T07:37:14.493Z,8.8
2023-01-18T07:38:14.469Z,8.9
2023-01-18T07:39:14.506Z,8.8
2023-01-18T07:40:14.515Z,8.9
2023-01-18T07:41:14.491Z,8.9
2023-01-18T07:42:14.488Z,8.9
2023-01-18T07:43:14.505Z,8.9
2023-01-18T07:44:14.504Z,8.8
2023-01-18T07:45:14.467Z,8.8
2023-01-18T07:46:14.674Z,8.8
2023-01-18T07:47:14.511Z,8.8
2023-01-18T07:48:14.479Z,8.8
2023-01-18T07:49:14.485Z,8.8
2023-01-18T07:50:14.517Z,8.8
2023-01-18T07:51:14.496Z,8.8
2023-01-18T07:52:14.502Z,8.9
2023-01-18T07:53:14.505Z,8.9
2023-01-18T07:54:14.483Z,8.9
2023-01-18T07:55:14.497Z,8.9
2023-01-18T07:56:14.477Z,8.9
2023-01-18T07:57:14.486Z,8.9
2023-01-18T07:58:14.505Z,8.9
2023-01-18T07:59:14.478Z,8.9
2023-01-18T08:00:14.453Z,8.9
2023-01-18T08:01:14.585Z,8.9
2023-01-18T08:02:14.627Z,8.9
2023-01-18T08:03:14.587Z,8.9
2023-01-18T08:04:14.474Z,8.9
2023-01-18T08:05:14.505Z,8.9
2023-01-18T08:06:14.460Z,8.8
2023-01-18T08:07:14.466Z,8.9
2023-01-18T08:08:14.470Z,8.9
2023-01-18T08:09:14.468Z,8.9
2023-01-18T08:10:14.485Z,8.9
2023-01-18T08:11:14.503Z,8.9
2023-01-18T08:12:14.502Z,8.9
2023-01-18T08:13:14.517Z,8.9
2023-01-18T08:14:14.472Z,9
2023-01-18T08:15:14.470Z,9
2023-01-18T08:16:14.584Z,9.1
2023-01-18T08:17:14.490Z,9.1
2023-01-18T08:18:14.500Z,9.1
2023-01-18T08:19:14.468Z,9
2023-01-18T08:20:14.460Z,9
2023-01-18T08:21:14.480Z,9
2023-01-18T08:22:14.474Z,9
2023-01-18T08:23:14.484Z,8.9
2023-01-18T08:24:14.450Z,8.9
2023-01-18T08:25:14.487Z,8.9
2023-01-18T08:26:14.493Z,8.9
2023-01-18T08:27:14.475Z,8.9
2023-01-18T08:28:14.486Z,8.9
2023-01-18T08:29:14.452Z,8.9
2023-01-18T08:30:14.467Z,8.9
2023-01-18T08:31:14.528Z,8.9
2023-01-18T08:32:14.480Z,8.8
2023-01-18T08:33:14.452Z,8.8
2023-01-18T08:34:14.449Z,8.9
2023-01-18T08:35:14.502Z,8.9
2023-01-18T08:36:14.496Z,8.9
2023-01-18T08:37:14.475Z,8.9
2023-01-18T08:38:14.482Z,8.9
2023-01-18T08:39:14.468Z,8.9
2023-01-18T08:40:14.480Z,8.9
2023-01-18T08:41:14.458Z,9
2023-01-18T08:42:14.433Z,9
2023-01-18T08:43:14.493Z,9
2023-01-18T08:44:14.481Z,9
2023-01-18T08:45:14.483Z,9
2023-01-18T08:46:14.560Z,9
2023-01-18T08:47:14.475Z,9
2023-01-18T08:48:14.449Z,9.1
2023-01-18T08:49:14.484Z,9.1
2023-01-18T08:50:14.470Z,9.1
2023-01-18T08:51:14.468Z,9.1
2023-01-18T08:52:14.469Z,9.1
2023-01-18T08:53:14.464Z,9.1
2023-01-18T08:54:14.464Z,9.1
2023-01-18T08:55:14.444Z,9.1
2023-01-18T08:56:14.465Z,9.1
2023-01-18T08:57:14.452Z,9.1
2023-01-18T08:58:14.447Z,9.1
2023-01-18T08:59:14.543Z,9.2
2023-01-18T09:00:14.498Z,9.1
2023-01-18T09:01:14.532Z,9.1
2023-01-18T09:02:14.611Z,9.1
2023-01-18T09:03:14.563Z,9.2
2023-01-18T09:04:14.461Z,9.2
2023-01-18T09:05:14.477Z,9.1
2023-01-18T09:06:14.470Z,9.1
2023-01-18T09:07:14.494Z,9.1
2023-01-18T09:08:14.479Z,9.1
2023-01-18T09:09:14.478Z,9.1
2023-01-18T09:10:14.471Z,9.1
2023-01-18T09:11:14.475Z,9.1
2023-01-18T09:12:14.477Z,9.1
2023-01-18T09:13:14.464Z,9.1
2023-01-18T09:14:14.452Z,8.9
2023-01-18T09:15:14.474Z,8.9
2023-01-18T09:16:14.471Z,8.9
2023-01-18T09:17:14.507Z,9
2023-01-18T09:18:14.461Z,9
2023-01-18T09:19:14.461Z,8.9
2023-01-18T09:20:16.075Z,9.1
2023-01-18T09:21:14.469Z,9.1
2023-01-18T09:22:14.436Z,9.1
2023-01-18T09:23:14.469Z,9.1
2023-01-18T09:24:14.438Z,9.2
2023-01-18T09:25:14.496Z,9.2
2023-01-18T09:26:14.460Z,9.2
2023-01-18T09:27:14.439Z,9.1
2023-01-18T09:28:14.446Z,9.1
2023-01-18T09:29:14.493Z,9.1
2023-01-18T09:30:14.478Z,9.1
2023-01-18T09:31:14.513Z,9.1
2023-01-18T09:32:14.506Z,9.2
2023-01-18T09:33:14.476Z,9.3
2023-01-18T09:34:19.288Z,9.2
2023-01-18T09:35:14.463Z,9.3
2023-01-18T09:36:14.436Z,9.3
2023-01-18T09:37:14.478Z,9.3
2023-01-18T09:38:14.487Z,9.3
2023-01-18T09:39:14.465Z,9.3
2023-01-18T09:40:14.463Z,9.3
2023-01-18T09:41:14.859Z,9.3
2023-01-18T09:42:14.482Z,9.3
2023-01-18T09:43:14.462Z,9.2
2023-01-18T09:44:14.454Z,9.2
2023-01-18T09:45:14.440Z,9.3
2023-01-18T09:46:14.531Z,9.2
2023-01-18T09:47:14.462Z,9.3
2023-01-18T09:48:14.447Z,9.3
2023-01-18T09:49:14.457Z,9.2
2023-01-18T09:50:14.464Z,9.2
2023-01-18T09:51:14.436Z,9.3
2023-01-18T09:52:14.437Z,9.3
2023-01-18T09:53:14.445Z,9.3
2023-01-18T09:54:14.507Z,9.3
2023-01-18T09:55:14.472Z,9.3
2023-01-18T09:56:14.456Z,9.3
2023-01-18T09:57:14.468Z,9.3
2023-01-18T09:58:14.478Z,9.3
2023-01-18T09:59:14.431Z,9.2
2023-01-18T10:00:14.457Z,9.3
2023-01-18T10:01:14.699Z,9.3
2023-01-18T10:02:14.647Z,9.3
2023-01-18T10:03:14.455Z,9.3
2023-01-18T10:04:14.473Z,9.3
2023-01-18T10:05:14.499Z,9.3
2023-01-18T10:06:14.440Z,9.3
2023-01-18T10:07:14.433Z,9.3
2023-01-18T10:08:14.459Z,9.3
2023-01-18T10:09:14.458Z,9.3
2023-01-18T10:10:14.497Z,9.3
2023-01-18T10:11:14.461Z,9.3
2023-01-18T10:12:14.483Z,9.3
2023-01-18T10:13:14.453Z,9.3
2023-01-18T10:14:14.468Z,9.3
2023-01-18T10:15:14.500Z,9.1
2023-01-18T10:16:14.526Z,9.1
2023-01-18T10:17:14.473Z,9.2
2023-01-18T10:18:14.468Z,9.3
2023-01-18T10:19:14.456Z,9.2
2023-01-18T10:20:14.458Z,9.3
2023-01-18T10:21:14.476Z,9.3
2023-01-18T10:22:14.447Z,9.3
2023-01-18T10:23:14.643Z,9.3
2023-01-18T10:24:14.427Z,9.3
2023-01-18T10:25:14.425Z,9.3
2023-01-18T10:26:14.451Z,9.3
2023-01-18T10:27:14.495Z,9.1
2023-01-18T10:28:14.457Z,9.2
2023-01-18T10:29:14.457Z,9.2
2023-01-18T10:30:14.454Z,9.1
2023-01-18T10:31:14.557Z,9.2
2023-01-18T10:32:14.437Z,9.3
2023-01-18T10:33:14.451Z,9.2
2023-01-18T10:34:14.530Z,9.2
2023-01-18T10:35:14.420Z,9.1
2023-01-18T10:36:14.438Z,9.1
2023-01-18T10:37:14.561Z,9.1
2023-01-18T10:38:14.429Z,9.2
2023-01-18T10:39:14.437Z,9.2
2023-01-18T10:40:14.463Z,9.2
2023-01-18T10:41:14.474Z,9.1
2023-01-18T10:42:14.456Z,9.2
2023-01-18T10:43:14.457Z,9.2
2023-01-18T10:44:14.458Z,9.3
2023-01-18T10:45:14.451Z,9.3
2023-01-18T10:46:14.476Z,9.1
2023-01-18T10:47:15.976Z,9.1
2023-01-18T10:48:14.469Z,9.2
2023-01-18T10:49:14.425Z,9.1
2023-01-18T10:50:14.523Z,9.1
2023-01-18T10:51:16.706Z,9.1
2023-01-18T10:52:14.485Z,9.2
2023-01-18T10:53:14.465Z,9.1
2023-01-18T10:54:14.470Z,8.9
2023-01-18T10:55:14.426Z,9
2023-01-18T10:56:14.476Z,9
2023-01-18T10:57:14.630Z,9
2023-01-18T10:58:14.457Z,9
2023-01-18T10:59:14.442Z,8.9
2023-01-18T11:00:14.448Z,8.9
2023-01-18T11:01:14.641Z,8.9
2023-01-18T11:02:14.501Z,8.9
2023-01-18T11:03:14.423Z,9
2023-01-18T11:04:14.429Z,9
2023-01-18T11:05:14.512Z,9.1
2023-01-18T11:06:14.420Z,9.1
2023-01-18T11:07:14.439Z,9
2023-01-18T11:08:14.466Z,8.9
2023-01-18T11:09:14.439Z,8.9
2023-01-18T11:10:14.427Z,8.9
2023-01-18T11:11:14.430Z,9
2023-01-18T11:12:14.448Z,9
2023-01-18T11:13:14.458Z,9
2023-01-18T11:14:14.446Z,9
2023-01-18T11:15:14.630Z,8.9
2023-01-18T11:16:14.514Z,8.9
2023-01-18T11:17:14.466Z,8.9
2023-01-18T11:18:16.293Z,8.9
2023-01-18T11:19:14.483Z,8.9
2023-01-18T11:20:14.444Z,8.9
2023-01-18T11:21:14.452Z,8.9
2023-01-18T11:22:14.479Z,8.9
2023-01-18T11:23:14.460Z,8.9
2023-01-18T11:24:14.482Z,8.8
2023-01-18T11:25:14.442Z,8.8
2023-01-18T11:26:14.457Z,8.9
2023-01-18T11:27:14.498Z,8.9
2023-01-18T11:28:14.437Z,8.9
2023-01-18T11:29:14.454Z,8.9
2023-01-18T11:30:14.496Z,8.9
2023-01-18T11:31:14.434Z,8.9
2023-01-18T11:32:14.427Z,8.9
2023-01-18T11:33:14.422Z,8.9
2023-01-18T11:34:14.486Z,8.9
2023-01-18T11:35:14.480Z,8.9
2023-01-18T11:36:14.448Z,8.9
2023-01-18T11:37:14.416Z,9
2023-01-18T11:38:14.441Z,9
2023-01-18T11:39:14.472Z,8.9
2023-01-18T11:40:14.432Z,8.9
2023-01-18T11:41:14.428Z,8.9
2023-01-18T11:42:14.509Z,8.9
2023-01-18T11:43:14.450Z,8.9
2023-01-18T11:44:14.462Z,8.8
2023-01-18T11:45:14.527Z,8.9
2023-01-18T11:46:14.540Z,8.8
2023-01-18T11:47:14.443Z,8.8
2023-01-18T11:48:14.424Z,8.9
2023-01-18T11:49:14.519Z,8.9
2023-01-18T11:50:21.941Z,8.8
2023-01-18T11:51:14.455Z,8.9
2023-01-18T11:52:14.564Z,8.9
2023-01-18T11:53:14.469Z,8.9
2023-01-18T11:54:14.436Z,8.9
2023-01-18T11:55:14.449Z,9
2023-01-18T11:56:14.443Z,9.1
2023-01-18T11:57:14.454Z,9.1
2023-01-18T11:58:14.445Z,9.1
2023-01-18T11:59:14.431Z,9
2023-01-18T12:00:14.474Z,9
2023-01-18T12:01:14.506Z,9
2023-01-18T12:02:14.461Z,8.9
2023-01-18T12:03:14.447Z,8.9
2023-01-18T12:04:14.460Z,9
2023-01-18T12:05:14.417Z,8.9
2023-01-18T12:06:14.503Z,8.9
2023-01-18T12:07:14.436Z,8.9
2023-01-18T12:08:14.431Z,8.8
2023-01-18T12:09:14.425Z,8.8
2023-01-18T12:10:14.411Z,8.8
2023-01-18T12:11:14.955Z,8.8
2023-01-18T12:12:19.272Z,8.8
2023-01-18T12:13:14.443Z,8.9
2023-01-18T12:14:14.399Z,8.9
2023-01-18T12:15:14.438Z,8.9
2023-01-18T12:16:14.424Z,8.9
2023-01-18T12:17:14.431Z,8.9
2023-01-18T12:18:14.855Z,8.9
2023-01-18T12:19:14.414Z,8.9
2023-01-18T12:20:14.489Z,8.9
2023-01-18T12:21:14.448Z,8.9
2023-01-18T12:22:14.440Z,8.9
2023-01-18T12:23:14.423Z,8.9
2023-01-18T12:24:14.468Z,8.9
2023-01-18T12:25:14.429Z,8.9
2023-01-18T12:26:14.458Z,9
2023-01-18T12:27:14.444Z,9.1
2023-01-18T12:28:14.458Z,9.1
2023-01-18T12:29:14.400Z,9.1
2023-01-18T12:30:14.426Z,9.1
2023-01-18T12:31:14.414Z,9.2
2023-01-18T12:32:14.424Z,9.1
2023-01-18T12:33:14.433Z,9.1
2023-01-18T12:34:14.464Z,9
2023-01-18T12:35:23.685Z,9
2023-01-18T12:36:14.460Z,9.1
2023-01-18T12:37:14.437Z,8.9
2023-01-18T12:38:14.434Z,8.9
2023-01-18T12:39:14.497Z,8.9
2023-01-18T12:40:14.437Z,8.9
2023-01-18T12:41:14.411Z,8.9
2023-01-18T12:42:14.450Z,8.9
2023-01-18T12:43:14.405Z,8.9
2023-01-18T12:44:14.426Z,8.9
2023-01-18T12:45:14.456Z,8.9
2023-01-18T12:46:14.459Z,8.9
2023-01-18T12:47:14.431Z,8.9
2023-01-18T12:48:14.456Z,8.9
2023-01-18T12:49:14.430Z,8.8
2023-01-18T12:50:14.408Z,8.8
2023-01-18T12:51:14.408Z,8.8
2023-01-18T12:52:18.858Z,8.8
2023-01-18T12:53:14.517Z,8.8
2023-01-18T12:54:14.427Z,8.8
2023-01-18T12:55:14.428Z,8.8
2023-01-18T12:56:14.447Z,8.8
2023-01-18T12:57:14.405Z,8.8
2023-01-18T12:58:14.424Z,8.9
2023-01-18T12:59:14.417Z,8.8
2023-01-18T13:00:14.438Z,8.8
2023-01-18T13:01:14.567Z,8.8
2023-01-18T13:02:14.501Z,8.8
2023-01-18T13:03:14.492Z,8.8
2023-01-18T13:04:14.458Z,8.8
2023-01-18T13:05:14.422Z,8.8
2023-01-18T13:06:14.468Z,8.8
2023-01-18T13:07:14.407Z,8.8
2023-01-18T13:08:14.491Z,8.8
2023-01-18T13:09:14.399Z,8.8
2023-01-18T13:10:14.441Z,8.8
2023-01-18T13:11:14.467Z,8.8
2023-01-18T13:12:14.385Z,8.8
2023-01-18T13:13:14.417Z,8.8
2023-01-18T13:14:14.436Z,8.8
2023-01-18T13:15:14.520Z,8.7
2023-01-18T13:16:14.503Z,8.8
2023-01-18T13:17:14.415Z,8.8
2023-01-18T13:18:14.459Z,8.8
2023-01-18T13:19:14.416Z,8.7
2023-01-18T13:20:14.424Z,8.7
2023-01-18T13:22:20.943Z,8.8
2023-01-18T13:22:29.696Z,8.8
2023-01-18T13:23:29.753Z,8.7
2023-01-18T13:24:29.699Z,8.7
2023-01-18T13:25:29.687Z,8.7
2023-01-18T13:26:29.645Z,8.7
2023-01-18T13:27:29.663Z,8.7
2023-01-18T13:28:29.678Z,8.7
2023-01-18T13:29:29.732Z,8.7
2023-01-18T13:30:29.735Z,8.7
2023-01-18T13:31:29.708Z,8.7
2023-01-18T13:32:29.691Z,8.7
2023-01-18T13:33:29.678Z,8.7
2023-01-18T13:34:29.694Z,8.7
2023-01-18T13:35:29.660Z,8.8
2023-01-18T13:36:29.687Z,8.8
2023-01-18T13:37:29.694Z,8.8
2023-01-18T13:38:40.717Z,8.7
2023-01-18T13:39:29.678Z,8.7
2023-01-18T13:40:29.708Z,8.8
2023-01-18T13:41:29.640Z,8.7
2023-01-18T13:42:29.692Z,8.7
2023-01-18T13:43:29.716Z,8.7
2023-01-18T13:44:29.729Z,8.6
2023-01-18T13:45:29.690Z,8.6
2023-01-18T13:46:29.762Z,8.6
2023-01-18T13:47:29.699Z,8.7
2023-01-18T13:48:29.653Z,8.6
2023-01-18T13:49:37.099Z,8.6